Time;durP1;ratioP1;P1;durP2;ratioP2;P2;SDS_P1;SDS_P2;PMS_P1;PMS_P2;Temp;Humidity;BMP_temperature;BMP_pressure;BME280_temperature;BME280_humidity;BME280_pressure;Samples;Min_cycle;Max_cycle;Signal;HPM_P1;HPM_P2
2022/10/24 00:00:33;;;;;;;5.53;3.40;;;;;;;;;;5048746;28;20037;-82
2022/10/24 00:02:59;;;;;;;8.80;3.85;;;;;;;;;;5043571;28;20048;-82
2022/10/24 00:05:25;;;;;;;4.47;3.55;;;;;;;;;;5045632;28;20038;-82
2022/10/24 00:07:51;;;;;;;9.25;3.70;;;;;;;;;;5039718;28;20045;-82
2022/10/24 00:10:17;;;;;;;6.47;3.70;;;;;;;;;;5040145;28;20037;-81
2022/10/24 00:12:43;;;;;;;6.80;3.70;;;;;;;;;;5037585;28;20124;-82
2022/10/24 00:15:10;;;;;;;8.95;3.78;;;;;;;;;;5049381;28;20049;-82
2022/10/24 00:17:36;;;;;;;5.63;3.33;;;;;;;;;;5054124;28;20120;-82
2022/10/24 00:20:02;;;;;;;6.82;3.53;;;;;;;;;;5053775;28;20412;-82
2022/10/24 00:22:28;;;;;;;5.22;3.42;;;;;;;;;;5052559;28;20037;-82
2022/10/24 00:24:54;;;;;;;6.13;3.20;;;;;;;;;;5050836;28;20043;-82
2022/10/24 00:27:20;;;;;;;5.75;3.38;;;;;;;;;;5047907;28;20037;-82
2022/10/24 00:29:46;;;;;;;6.45;3.35;;;;;;;;;;5054172;28;20128;-82
2022/10/24 00:32:13;;;;;;;5.18;3.40;;;;;;;;;;5052743;28;20095;-82
2022/10/24 00:34:39;;;;;;;4.82;2.78;;;;;;;;;;5052913;28;20527;-82
2022/10/24 00:37:05;;;;;;;4.63;2.85;;;;;;;;;;5052576;28;20048;-82
2022/10/24 00:39:31;;;;;;;8.60;3.47;;;;;;;;;;5057554;28;20109;-82
2022/10/24 00:41:58;;;;;;;7.13;3.10;;;;;;;;;;5054090;28;20476;-82
2022/10/24 00:44:28;;;;;;;7.63;3.35;;;;;;;;;;5034212;28;20496;-82
2022/10/24 00:47:01;;;;;;;7.95;2.92;;;;;;;;;;5041670;28;20044;-82
2022/10/24 00:49:30;;;;;;;6.35;2.60;;;;;;;;;;5051345;28;20052;-82
2022/10/24 00:52:00;;;;;;;4.82;2.80;;;;;;;;;;5053646;28;20049;-82
2022/10/24 00:54:26;;;;;;;6.45;2.92;;;;;;;;;;5051149;28;20053;-82
2022/10/24 00:57:11;;;;;;;7.45;2.90;;;;;;;;;;5039138;28;20052;-82
2022/10/24 00:59:40;;;;;;;6.97;2.67;;;;;;;;;;5041830;28;20096;-82
2022/10/24 01:02:06;;;;;;;7.93;2.85;;;;;;;;;;5044751;28;20044;-82
2022/10/24 01:04:32;;;;;;;5.07;2.47;;;;;;;;;;5053599;28;20048;-81
2022/10/24 01:07:01;;;;;;;6.05;3.05;;;;;;;;;;5042825;28;20092;-82
2022/10/24 01:09:27;;;;;;;4.88;2.50;;;;;;;;;;5039972;28;20045;-82
2022/10/24 01:12:02;;;;;;;6.28;2.90;;;;;;;;;;5050845;28;20125;-81
2022/10/24 01:14:31;;;;;;;4.73;2.40;;;;;;;;;;5053147;28;20396;-82
2022/10/24 01:17:00;;;;;;;6.85;2.38;;;;;;;;;;5039688;28;20476;-82
2022/10/24 01:19:33;;;;;;;4.32;2.55;;;;;;;;;;5045493;28;20045;-82
2022/10/24 01:22:02;;;;;;;7.30;2.38;;;;;;;;;;5033701;28;20048;-82
2022/10/24 01:24:38;;;;;;;5.30;2.50;;;;;;;;;;5037502;28;20048;-82
2022/10/24 01:27:09;;;;;;;5.63;2.50;;;;;;;;;;5035367;28;20129;-82
2022/10/24 01:29:35;;;;;;;6.03;2.90;;;;;;;;;;5033433;28;20116;-82
2022/10/24 01:32:04;;;;;;;6.75;2.67;;;;;;;;;;5031811;28;20444;-82
2022/10/24 01:34:53;;;;;;;5.65;2.75;;;;;;;;;;5042594;28;20064;-82
2022/10/24 01:37:30;;;;;;;7.05;3.05;;;;;;;;;;5046825;28;20045;-82
2022/10/24 01:39:59;;;;;;;5.40;2.22;;;;;;;;;;5052721;28;20037;-82
2022/10/24 01:42:27;;;;;;;6.10;3.05;;;;;;;;;;5052466;28;20519;-82
2022/10/24 01:44:55;;;;;;;5.70;2.90;;;;;;;;;;5043016;28;20120;-82
2022/10/24 01:47:24;;;;;;;8.57;2.90;;;;;;;;;;5050164;28;20118;-82
2022/10/24 01:50:01;;;;;;;7.75;3.35;;;;;;;;;;5038678;28;20124;-82
2022/10/24 01:52:30;;;;;;;5.47;2.95;;;;;;;;;;5051144;28;20041;-82
2022/10/24 01:54:56;;;;;;;5.57;3.25;;;;;;;;;;5048345;28;20559;-81
2022/10/24 01:57:29;;;;;;;4.97;2.70;;;;;;;;;;5039010;28;20086;-82
2022/10/24 01:59:55;;;;;;;8.32;3.38;;;;;;;;;;5042983;28;20037;-82
2022/10/24 02:02:26;;;;;;;5.65;3.33;;;;;;;;;;5045662;28;20520;-82
2022/10/24 02:04:58;;;;;;;8.73;3.00;;;;;;;;;;5042112;28;20496;-82
2022/10/24 02:07:25;;;;;;;4.55;2.78;;;;;;;;;;5039527;28;20046;-82
2022/10/24 02:09:53;;;;;;;8.02;3.22;;;;;;;;;;5044134;28;20056;-82
2022/10/24 02:12:20;;;;;;;6.95;3.03;;;;;;;;;;5048778;28;20392;-82
2022/10/24 02:14:53;;;;;;;6.18;3.10;;;;;;;;;;5045206;28;20050;-82
2022/10/24 02:17:19;;;;;;;8.60;3.80;;;;;;;;;;5044810;28;20045;-82
2022/10/24 02:19:46;;;;;;;6.72;2.83;;;;;;;;;;5051711;28;20488;-82
2022/10/24 02:22:38;;;;;;;5.30;2.83;;;;;;;;;;5052805;28;20044;-82
2022/10/24 02:25:04;;;;;;;7.20;3.13;;;;;;;;;;5044239;28;20102;-82
2022/10/24 02:27:33;;;;;;;7.00;2.97;;;;;;;;;;5036493;28;20124;-82
2022/10/24 02:30:07;;;;;;;8.05;3.00;;;;;;;;;;5041324;28;20045;-82
2022/10/24 02:32:41;;;;;;;11.10;3.28;;;;;;;;;;5052317;28;20238;-81
2022/10/24 02:35:08;;;;;;;7.00;3.20;;;;;;;;;;5052813;28;20048;-82
2022/10/24 02:37:36;;;;;;;6.70;3.00;;;;;;;;;;5055061;28;20064;-82
2022/10/24 02:40:07;;;;;;;6.95;3.33;;;;;;;;;;5056990;28;20041;-82
2022/10/24 02:42:33;;;;;;;6.13;3.05;;;;;;;;;;5058613;28;20407;-82
2022/10/24 02:45:00;;;;;;;5.75;2.95;;;;;;;;;;5054898;28;20115;-81
2022/10/24 02:47:27;;;;;;;6.22;3.38;;;;;;;;;;5048092;28;20041;-82
2022/10/24 02:49:54;;;;;;;5.60;2.97;;;;;;;;;;5056012;28;20052;-82
2022/10/24 02:52:20;;;;;;;7.53;3.05;;;;;;;;;;5039452;28;20554;-82
2022/10/24 02:54:46;;;;;;;8.25;3.25;;;;;;;;;;5047510;28;20037;-81
2022/10/24 02:57:14;;;;;;;5.95;3.67;;;;;;;;;;5045934;28;20420;-82
2022/10/24 02:59:40;;;;;;;7.07;3.65;;;;;;;;;;5040901;28;20051;-82
2022/10/24 03:02:06;;;;;;;5.95;3.42;;;;;;;;;;5056096;28;20176;-82
2022/10/24 03:04:32;;;;;;;7.30;4.05;;;;;;;;;;5055892;28;20037;-82
2022/10/24 03:06:58;;;;;;;7.82;3.40;;;;;;;;;;5052275;28;20119;-82
2022/10/24 03:09:24;;;;;;;9.05;3.13;;;;;;;;;;5054841;28;20135;-82
2022/10/24 03:11:50;;;;;;;8.35;3.40;;;;;;;;;;5054370;28;20048;-82
2022/10/24 03:14:16;;;;;;;7.22;2.90;;;;;;;;;;5040567;28;20041;-82
2022/10/24 03:16:42;;;;;;;6.25;2.92;;;;;;;;;;5055737;28;20120;-82
2022/10/24 03:19:08;;;;;;;6.25;3.30;;;;;;;;;;5054162;28;20126;-82
2022/10/24 03:21:35;;;;;;;6.18;3.00;;;;;;;;;;5055744;28;20052;-82
2022/10/24 03:24:01;;;;;;;10.90;3.22;;;;;;;;;;5056038;28;20040;-81
2022/10/24 03:26:27;;;;;;;6.72;2.83;;;;;;;;;;5055512;28;20466;-82
2022/10/24 03:28:53;;;;;;;4.68;3.00;;;;;;;;;;5055533;28;20037;-82
2022/10/24 03:31:19;;;;;;;7.63;3.20;;;;;;;;;;5051441;28;20403;-81
2022/10/24 03:33:45;;;;;;;8.50;3.13;;;;;;;;;;5057608;28;20120;-82
2022/10/24 03:36:11;;;;;;;7.38;3.60;;;;;;;;;;5044143;28;20045;-82
2022/10/24 03:38:37;;;;;;;6.70;3.30;;;;;;;;;;5053657;28;20045;-82
2022/10/24 03:41:04;;;;;;;6.00;2.92;;;;;;;;;;5038845;28;20037;-82
2022/10/24 03:43:30;;;;;;;6.82;2.92;;;;;;;;;;5055631;28;20048;-82
2022/10/24 03:45:56;;;;;;;9.05;2.97;;;;;;;;;;5043765;28;20430;-82
2022/10/24 03:48:25;;;;;;;5.60;3.42;;;;;;;;;;5044929;28;20045;-81
2022/10/24 03:50:51;;;;;;;8.20;2.97;;;;;;;;;;5070196;28;20040;-82
2022/10/24 03:53:17;;;;;;;9.73;3.33;;;;;;;;;;5059637;28;20136;-82
2022/10/24 03:55:43;;;;;;;5.03;3.08;;;;;;;;;;5055700;28;20041;-82
2022/10/24 03:58:09;;;;;;;7.13;2.97;;;;;;;;;;5045742;28;20056;-81
2022/10/24 04:00:39;;;;;;;5.25;2.85;;;;;;;;;;5051873;28;20079;-82
2022/10/24 04:03:08;;;;;;;6.95;2.80;;;;;;;;;;5054266;28;20411;-82
2022/10/24 04:05:35;;;;;;;7.80;2.70;;;;;;;;;;5049693;28;20080;-81
2022/10/24 04:08:01;;;;;;;5.90;3.20;;;;;;;;;;5046508;28;20049;-81
2022/10/24 04:10:27;;;;;;;9.38;2.97;;;;;;;;;;5050734;28;20057;-81
2022/10/24 04:12:53;;;;;;;7.75;2.70;;;;;;;;;;5054356;28;20041;-81
2022/10/24 04:15:19;;;;;;;6.65;2.35;;;;;;;;;;5049424;28;20073;-81
2022/10/24 04:17:45;;;;;;;5.10;2.60;;;;;;;;;;5035701;28;20045;-81
2022/10/24 04:20:12;;;;;;;6.40;2.58;;;;;;;;;;5073050;28;20047;-81
2022/10/24 04:22:38;;;;;;;5.45;2.55;;;;;;;;;;5054143;28;20045;-81
2022/10/24 04:25:04;;;;;;;4.78;2.75;;;;;;;;;;5054184;28;20119;-81
2022/10/24 04:27:30;;;;;;;6.43;2.83;;;;;;;;;;5053911;28;20047;-81
2022/10/24 04:29:56;;;;;;;7.63;2.78;;;;;;;;;;5054268;28;20055;-81
2022/10/24 04:32:23;;;;;;;9.07;2.95;;;;;;;;;;5049131;28;20038;-81
2022/10/24 04:34:49;;;;;;;7.75;3.10;;;;;;;;;;5042827;28;20041;-81
2022/10/24 04:37:15;;;;;;;6.60;3.10;;;;;;;;;;5053926;28;20060;-81
2022/10/24 04:39:41;;;;;;;5.28;2.75;;;;;;;;;;5053964;28;20076;-81
2022/10/24 04:42:07;;;;;;;8.57;3.05;;;;;;;;;;5037382;28;20558;-81
2022/10/24 04:44:33;;;;;;;5.65;2.70;;;;;;;;;;5053652;28;20550;-81
2022/10/24 04:46:59;;;;;;;6.63;3.10;;;;;;;;;;5038989;28;20037;-81
2022/10/24 04:49:25;;;;;;;8.75;3.10;;;;;;;;;;5053818;28;20037;-81
2022/10/24 04:51:51;;;;;;;6.57;2.80;;;;;;;;;;5054004;28;20041;-81
2022/10/24 04:54:17;;;;;;;6.70;2.90;;;;;;;;;;5053859;28;20040;-81
2022/10/24 04:56:43;;;;;;;8.40;2.90;;;;;;;;;;5051896;28;20488;-81
2022/10/24 04:59:09;;;;;;;8.27;3.00;;;;;;;;;;5048221;28;20123;-81
2022/10/24 05:01:35;;;;;;;6.03;2.80;;;;;;;;;;5051956;28;20068;-81
2022/10/24 05:04:01;;;;;;;6.20;2.90;;;;;;;;;;5051732;28;20045;-81
2022/10/24 05:06:27;;;;;;;7.80;3.70;;;;;;;;;;5049553;28;20120;-81
2022/10/24 05:08:53;;;;;;;8.45;3.03;;;;;;;;;;5052678;28;20111;-82
2022/10/24 05:11:19;;;;;;;9.90;2.88;;;;;;;;;;5047216;28;20044;-81
2022/10/24 05:13:45;;;;;;;6.18;2.80;;;;;;;;;;5033709;28;20047;-81
2022/10/24 05:16:11;;;;;;;6.70;2.80;;;;;;;;;;5040607;28;20073;-81
2022/10/24 05:18:37;;;;;;;4.55;2.92;;;;;;;;;;5048588;28;20128;-81
2022/10/24 05:21:03;;;;;;;6.28;2.90;;;;;;;;;;5049219;28;20043;-81
2022/10/24 05:23:29;;;;;;;5.78;2.47;;;;;;;;;;5033755;28;20041;-81
2022/10/24 05:25:55;;;;;;;9.63;2.60;;;;;;;;;;5042743;28;20116;-81
2022/10/24 05:28:21;;;;;;;5.50;2.63;;;;;;;;;;5049936;28;20037;-81
2022/10/24 05:30:47;;;;;;;9.80;2.60;;;;;;;;;;5034801;28;20049;-81
2022/10/24 05:33:13;;;;;;;5.55;2.70;;;;;;;;;;5032274;28;20050;-81
2022/10/24 05:35:40;;;;;;;6.07;2.50;;;;;;;;;;5045429;28;20075;-81
2022/10/24 05:38:07;;;;;;;4.88;2.67;;;;;;;;;;5042039;28;20500;-81
2022/10/24 05:40:33;;;;;;;7.93;2.53;;;;;;;;;;5046969;28;20091;-81
2022/10/24 05:42:59;;;;;;;5.68;2.70;;;;;;;;;;5042377;28;20376;-81
2022/10/24 05:45:25;;;;;;;6.60;2.60;;;;;;;;;;5052574;28;20041;-81
2022/10/24 05:47:51;;;;;;;6.38;2.42;;;;;;;;;;5041048;28;20052;-81
2022/10/24 05:50:17;;;;;;;5.82;2.28;;;;;;;;;;5042118;28;20048;-82
2022/10/24 05:52:43;;;;;;;9.27;2.72;;;;;;;;;;5020103;28;20049;-81
2022/10/24 05:55:09;;;;;;;7.03;2.97;;;;;;;;;;5052309;28;20045;-81
2022/10/24 05:57:37;;;;;;;6.30;2.30;;;;;;;;;;5053003;28;20041;-81
2022/10/24 06:00:08;;;;;;;6.00;2.22;;;;;;;;;;5044554;28;20033;-81
2022/10/24 06:02:34;;;;;;;6.53;2.45;;;;;;;;;;5058826;28;20082;-81
2022/10/24 06:05:00;;;;;;;4.03;2.40;;;;;;;;;;5048789;28;20044;-82
2022/10/24 06:07:26;;;;;;;8.27;2.20;;;;;;;;;;5059967;28;20049;-82
2022/10/24 06:09:53;;;;;;;7.25;3.67;;;;;;;;;;5026686;28;20057;-81
2022/10/24 06:12:19;;;;;;;7.53;2.45;;;;;;;;;;5046410;28;20061;-82
2022/10/24 06:14:45;;;;;;;7.32;2.10;;;;;;;;;;5048479;28;20077;-82
2022/10/24 06:17:11;;;;;;;5.88;2.78;;;;;;;;;;5045090;28;20370;-82
2022/10/24 06:19:38;;;;;;;7.90;2.42;;;;;;;;;;5048706;28;20078;-82
2022/10/24 06:22:05;;;;;;;6.22;2.50;;;;;;;;;;5048598;28;20041;-82
2022/10/24 06:24:33;;;;;;;12.07;2.72;;;;;;;;;;5044870;28;20123;-80
2022/10/24 06:26:59;;;;;;;7.47;2.67;;;;;;;;;;5055150;28;20053;-81
2022/10/24 06:29:25;;;;;;;8.93;2.80;;;;;;;;;;5047928;28;20052;-81
2022/10/24 06:31:51;;;;;;;5.93;2.50;;;;;;;;;;5037933;28;20042;-81
2022/10/24 06:34:17;;;;;;;7.88;2.42;;;;;;;;;;5045013;28;20052;-81
2022/10/24 06:36:43;;;;;;;5.00;2.20;;;;;;;;;;5051407;28;20049;-81
2022/10/24 06:39:09;;;;;;;7.55;2.60;;;;;;;;;;5043646;28;20042;-81
2022/10/24 06:41:35;;;;;;;5.30;1.88;;;;;;;;;;5050862;28;20055;-82
2022/10/24 06:44:02;;;;;;;4.30;2.20;;;;;;;;;;5043832;28;20111;-82
2022/10/24 06:46:28;;;;;;;5.22;2.03;;;;;;;;;;5049937;28;20049;-82
2022/10/24 06:48:54;;;;;;;10.05;2.28;;;;;;;;;;5044241;28;20053;-82
2022/10/24 06:51:21;;;;;;;4.97;2.35;;;;;;;;;;5047482;28;20127;-82
2022/10/24 06:53:47;;;;;;;9.75;2.97;;;;;;;;;;5054463;28;20041;-82
2022/10/24 06:56:13;;;;;;;4.10;2.08;;;;;;;;;;5048238;28;20041;-82
2022/10/24 06:58:39;;;;;;;12.68;2.38;;;;;;;;;;5043738;28;20327;-82
2022/10/24 07:01:14;;;;;;;8.25;2.28;;;;;;;;;;5056279;28;20143;-82
2022/10/24 07:03:40;;;;;;;8.85;2.50;;;;;;;;;;5054860;28;20123;-81
2022/10/24 07:06:10;;;;;;;4.90;2.00;;;;;;;;;;5042277;28;20476;-82
2022/10/24 07:08:36;;;;;;;5.40;2.20;;;;;;;;;;5047919;28;20143;-82
2022/10/24 07:11:02;;;;;;;6.88;2.10;;;;;;;;;;5046694;28;20508;-82
2022/10/24 07:13:29;;;;;;;6.35;2.17;;;;;;;;;;5047917;28;20492;-81
2022/10/24 07:15:55;;;;;;;7.00;2.05;;;;;;;;;;5053273;28;20557;-82
2022/10/24 07:18:21;;;;;;;9.07;2.30;;;;;;;;;;5050673;28;20045;-82
2022/10/24 07:20:47;;;;;;;4.47;2.42;;;;;;;;;;5043830;28;20119;-82
2022/10/24 07:23:14;;;;;;;5.68;2.10;;;;;;;;;;5056203;28;20041;-80
2022/10/24 07:25:40;;;;;;;7.22;2.00;;;;;;;;;;5056345;28;20048;-85
2022/10/24 07:28:07;;;;;;;7.95;2.10;;;;;;;;;;5050350;28;20045;-84
2022/10/24 07:30:33;;;;;;;4.35;2.30;;;;;;;;;;5035731;28;20048;-84
2022/10/24 07:32:59;;;;;;;9.80;2.30;;;;;;;;;;5047841;28;20041;-84
2022/10/24 07:35:25;;;;;;;6.50;2.00;;;;;;;;;;5055757;28;20511;-87
2022/10/24 07:37:52;;;;;;;5.20;1.90;;;;;;;;;;5055348;28;20118;-82
2022/10/24 07:40:18;;;;;;;5.28;2.15;;;;;;;;;;5055377;28;20041;-81
2022/10/24 07:42:44;;;;;;;6.18;2.08;;;;;;;;;;5055979;28;20052;-81
2022/10/24 07:45:10;;;;;;;9.05;1.92;;;;;;;;;;5055782;28;20128;-81
2022/10/24 07:47:36;;;;;;;4.97;1.80;;;;;;;;;;5055011;28;20052;-81
2022/10/24 07:50:03;;;;;;;5.20;2.08;;;;;;;;;;5055375;28;20048;-81
2022/10/24 07:52:29;;;;;;;5.55;1.90;;;;;;;;;;5055183;28;20037;-81
2022/10/24 07:54:56;;;;;;;5.85;2.45;;;;;;;;;;5055620;28;20052;-81
2022/10/24 07:57:23;;;;;;;5.38;1.73;;;;;;;;;;5054995;28;20056;-78
2022/10/24 07:59:49;;;;;;;7.65;2.00;;;;;;;;;;5055019;28;20480;-77
2022/10/24 08:02:15;;;;;;;6.95;2.05;;;;;;;;;;5055755;28;20076;-79
2022/10/24 08:04:41;;;;;;;9.15;2.35;;;;;;;;;;5052297;28;20056;-80
2022/10/24 08:07:11;;;;;;;5.93;2.15;;;;;;;;;;5055067;28;20033;-79
2022/10/24 08:09:41;;;;;;;6.57;2.20;;;;;;;;;;5052866;28;20049;-80
2022/10/24 08:12:07;;;;;;;5.93;2.03;;;;;;;;;;5042740;28;20041;-80
2022/10/24 08:14:34;;;;;;;6.93;2.13;;;;;;;;;;5048476;28;20047;-80
2022/10/24 08:17:00;;;;;;;5.88;1.85;;;;;;;;;;5040148;28;20111;-80
2022/10/24 08:19:26;;;;;;;6.65;2.20;;;;;;;;;;5033267;28;20440;-80
2022/10/24 08:21:52;;;;;;;7.47;1.95;;;;;;;;;;5048796;28;20040;-80
2022/10/24 08:24:18;;;;;;;7.03;2.13;;;;;;;;;;5054368;28;20091;-80
2022/10/24 08:26:44;;;;;;;4.55;1.75;;;;;;;;;;5054806;28;20124;-81
2022/10/24 08:29:10;;;;;;;4.80;1.92;;;;;;;;;;5046471;28;20044;-80
2022/10/24 08:31:37;;;;;;;6.07;1.90;;;;;;;;;;5053964;28;20519;-80
2022/10/24 08:34:04;;;;;;;6.30;2.25;;;;;;;;;;5054463;28;20534;-80
2022/10/24 08:36:32;;;;;;;8.32;2.13;;;;;;;;;;5050546;28;20072;-80
2022/10/24 08:38:59;;;;;;;5.43;2.03;;;;;;;;;;5044193;28;20041;-80
2022/10/24 08:41:25;;;;;;;6.18;2.13;;;;;;;;;;5054273;28;20080;-80
2022/10/24 08:43:52;;;;;;;8.10;1.90;;;;;;;;;;5053702;28;20190;-80
2022/10/24 08:46:21;;;;;;;6.20;2.03;;;;;;;;;;5052084;28;20048;-80
2022/10/24 08:48:51;;;;;;;8.02;2.25;;;;;;;;;;5053944;28;20044;-80
2022/10/24 08:51:34;;;;;;;8.43;2.10;;;;;;;;;;5053882;28;20072;-80
2022/10/24 08:54:00;;;;;;;6.05;1.90;;;;;;;;;;5045470;28;20179;-80
2022/10/24 08:56:28;;;;;;;4.72;2.00;;;;;;;;;;5047281;28;20053;-80
2022/10/24 08:58:55;;;;;;;6.25;2.63;;;;;;;;;;5032879;28;20048;-80
2022/10/24 09:01:29;;;;;;;6.28;2.00;;;;;;;;;;5037308;28;20045;-80
2022/10/24 09:03:55;;;;;;;7.30;2.15;;;;;;;;;;5035120;28;20050;-83
2022/10/24 09:06:22;;;;;;;4.72;1.73;;;;;;;;;;5049163;28;20366;-78
2022/10/24 09:09:02;;;;;;;7.45;2.20;;;;;;;;;;5052248;28;20103;-81
2022/10/24 09:11:31;;;;;;;7.00;1.98;;;;;;;;;;5048759;28;20051;-79
2022/10/24 09:14:02;;;;;;;5.22;2.00;;;;;;;;;;5034149;28;20053;-78
2022/10/24 09:16:28;;;;;;;7.30;2.38;;;;;;;;;;5033891;28;20099;-77
2022/10/24 09:18:55;;;;;;;5.13;2.20;;;;;;;;;;5034239;28;20046;-78
2022/10/24 09:21:22;;;;;;;7.32;2.20;;;;;;;;;;5034316;28;20396;-79
2022/10/24 09:23:49;;;;;;;5.55;2.22;;;;;;;;;;5031836;28;20124;-83
2022/10/24 09:26:33;;;;;;;8.63;2.40;;;;;;;;;;5027505;28;20041;-79
2022/10/24 09:28:59;;;;;;;7.40;2.50;;;;;;;;;;5033629;28;20496;-83
2022/10/24 09:31:26;;;;;;;7.22;2.10;;;;;;;;;;5035640;28;20045;-76
2022/10/24 09:33:52;;;;;;;6.03;2.28;;;;;;;;;;5032922;28;20087;-82
2022/10/24 09:36:20;;;;;;;7.05;2.20;;;;;;;;;;5033117;28;20044;-80
2022/10/24 09:38:47;;;;;;;6.47;2.28;;;;;;;;;;5033100;28;20378;-84
2022/10/24 09:41:24;;;;;;;8.77;2.40;;;;;;;;;;5021601;28;20052;-79
2022/10/24 09:43:53;;;;;;;13.25;2.78;;;;;;;;;;5033557;28;20046;-81
2022/10/24 09:46:25;;;;;;;5.68;2.35;;;;;;;;;;5032720;28;20053;-80
2022/10/24 09:48:54;;;;;;;6.90;2.50;;;;;;;;;;5031902;28;20045;-80
2022/10/24 09:51:40;;;;;;;6.18;2.80;;;;;;;;;;5032870;28;20037;-80
2022/10/24 09:54:18;;;;;;;9.30;2.80;;;;;;;;;;5035701;28;20081;-80
2022/10/24 09:56:55;;;;;;;6.72;2.67;;;;;;;;;;5035295;28;20679;-76
2022/10/24 09:59:23;;;;;;;7.13;2.35;;;;;;;;;;5033192;28;20094;-82
2022/10/24 10:01:49;;;;;;;7.30;2.67;;;;;;;;;;5032820;28;20138;-80
2022/10/24 10:04:17;;;;;;;9.73;2.63;;;;;;;;;;5033468;28;20052;-80
2022/10/24 10:06:44;;;;;;;8.25;2.60;;;;;;;;;;5032806;28;20374;-81
2022/10/24 10:09:15;;;;;;;6.45;2.60;;;;;;;;;;5032824;28;20061;-82
2022/10/24 10:11:41;;;;;;;9.38;2.35;;;;;;;;;;5032987;28;20052;-82
2022/10/24 10:14:21;;;;;;;10.13;2.85;;;;;;;;;;5032841;28;20089;-82
2022/10/24 10:16:57;;;;;;;8.82;2.80;;;;;;;;;;5033473;28;20125;-83
2022/10/24 10:19:23;;;;;;;9.77;2.40;;;;;;;;;;5033257;28;20045;-83
2022/10/24 10:21:53;;;;;;;10.82;3.17;;;;;;;;;;5026959;28;20069;-82
2022/10/24 10:24:24;;;;;;;10.02;2.60;;;;;;;;;;5013557;28;20089;-82
2022/10/24 10:26:50;;;;;;;12.55;3.03;;;;;;;;;;5013555;28;20104;-83
2022/10/24 10:29:16;;;;;;;10.00;2.60;;;;;;;;;;5029470;28;20469;-82
2022/10/24 10:31:46;;;;;;;8.75;2.80;;;;;;;;;;5032883;28;20042;-82
2022/10/24 10:34:27;;;;;;;14.05;3.28;;;;;;;;;;5031330;28;20076;-83
2022/10/24 10:36:53;;;;;;;12.43;3.13;;;;;;;;;;5033738;28;20042;-83
2022/10/24 10:39:29;;;;;;;14.45;3.22;;;;;;;;;;5034883;28;20045;-87
2022/10/24 10:42:08;;;;;;;13.20;3.08;;;;;;;;;;5033740;28;20045;-83
2022/10/24 10:44:52;;;;;;;14.15;3.95;;;;;;;;;;5029184;28;20388;-83
2022/10/24 10:47:24;;;;;;;8.98;3.30;;;;;;;;;;5013151;28;20104;-83
2022/10/24 10:49:53;;;;;;;10.40;2.83;;;;;;;;;;5012781;28;20400;-82
2022/10/24 10:52:39;;;;;;;10.00;3.10;;;;;;;;;;5022292;28;20511;-83
2022/10/24 10:55:20;;;;;;;11.98;3.28;;;;;;;;;;5025798;28;20129;-82
2022/10/24 10:58:06;;;;;;;10.60;3.00;;;;;;;;;;5033631;28;20127;-83
2022/10/24 11:00:41;;;;;;;11.02;2.83;;;;;;;;;;5005953;28;20061;-83
2022/10/24 11:03:31;;;;;;;10.95;3.03;;;;;;;;;;5036275;28;20112;-83
2022/10/24 11:06:03;;;;;;;9.30;3.00;;;;;;;;;;5019726;28;20089;-82
2022/10/24 11:08:39;;;;;;;11.95;3.67;;;;;;;;;;5036083;28;20049;-82
2022/10/24 11:11:25;;;;;;;9.93;2.70;;;;;;;;;;5016539;28;20054;-82
2022/10/24 11:13:54;;;;;;;10.60;2.92;;;;;;;;;;5015746;28;20053;-82
2022/10/24 11:16:24;;;;;;;12.02;3.10;;;;;;;;;;5035983;28;20041;-82
2022/10/24 11:18:51;;;;;;;7.20;2.83;;;;;;;;;;5035923;28;20041;-82
2022/10/24 11:21:20;;;;;;;11.48;2.90;;;;;;;;;;5024908;28;20045;-82
2022/10/24 11:24:06;;;;;;;10.63;3.00;;;;;;;;;;5035789;28;20128;-82
2022/10/24 11:26:39;;;;;;;7.18;3.03;;;;;;;;;;5016100;28;20485;-82
2022/10/24 11:29:17;;;;;;;10.90;3.13;;;;;;;;;;5016658;28;20049;-81
2022/10/24 11:31:46;;;;;;;8.13;3.13;;;;;;;;;;5015658;28;20046;-82
2022/10/24 11:34:19;;;;;;;11.10;3.03;;;;;;;;;;5029419;28;20048;-82
2022/10/24 11:36:54;;;;;;;9.40;2.92;;;;;;;;;;5035617;28;20272;-82
2022/10/24 11:39:25;;;;;;;9.68;3.30;;;;;;;;;;5035523;28;20037;-82
2022/10/24 11:42:10;;;;;;;9.88;2.70;;;;;;;;;;5023310;28;20049;-82
2022/10/24 11:44:55;;;;;;;11.23;3.45;;;;;;;;;;5015958;28;20082;-82
2022/10/24 11:47:24;;;;;;;6.13;2.80;;;;;;;;;;5029225;28;20042;-82
2022/10/24 11:49:58;;;;;;;9.73;3.15;;;;;;;;;;5035351;28;20405;-80
2022/10/24 11:52:38;;;;;;;11.23;2.88;;;;;;;;;;5015490;28;20046;-81
2022/10/24 11:55:07;;;;;;;5.45;2.67;;;;;;;;;;5032838;28;20042;-78
2022/10/24 11:57:36;;;;;;;8.52;2.75;;;;;;;;;;5035476;28;20042;-83
2022/10/24 12:00:03;;;;;;;9.30;3.33;;;;;;;;;;5034460;28;20489;-80
2022/10/24 12:02:29;;;;;;;10.65;3.65;;;;;;;;;;5035035;28;20080;-81
2022/10/24 12:05:01;;;;;;;7.90;2.95;;;;;;;;;;5016994;28;20042;-81
2022/10/24 12:07:46;;;;;;;9.45;2.70;;;;;;;;;;5035060;28;20066;-81
2022/10/24 12:10:34;;;;;;;12.73;4.03;;;;;;;;;;5034374;28;20064;-81
2022/10/24 12:13:18;;;;;;;8.70;3.25;;;;;;;;;;5015191;28;20042;-80
2022/10/24 12:15:49;;;;;;;10.00;2.60;;;;;;;;;;5018218;28;20112;-84
2022/10/24 12:18:36;;;;;;;13.75;2.80;;;;;;;;;;5034920;28;20054;-84
2022/10/24 12:21:07;;;;;;;11.13;2.88;;;;;;;;;;5015134;28;20489;-83
2022/10/24 12:23:33;;;;;;;11.50;3.17;;;;;;;;;;5029873;28;20507;-83
2022/10/24 12:26:06;;;;;;;11.15;3.35;;;;;;;;;;5034341;28;20496;-83
2022/10/24 12:28:33;;;;;;;11.38;3.10;;;;;;;;;;5047645;28;20115;-84
2022/10/24 12:31:14;;;;;;;9.40;2.80;;;;;;;;;;5030060;28;20033;-81
2022/10/24 12:33:41;;;;;;;9.43;3.05;;;;;;;;;;5014617;28;20048;-82
2022/10/24 12:36:07;;;;;;;7.35;2.33;;;;;;;;;;5014664;28;20099;-82
2022/10/24 12:38:53;;;;;;;8.82;2.75;;;;;;;;;;5034500;28;20392;-82
2022/10/24 12:41:46;;;;;;;11.07;2.97;;;;;;;;;;5016131;28;20052;-82
2022/10/24 12:44:30;;;;;;;5.63;2.30;;;;;;;;;;5019074;28;20056;-83
2022/10/24 12:46:56;;;;;;;9.43;2.97;;;;;;;;;;5033769;28;20529;-82
2022/10/24 12:49:30;;;;;;;9.38;2.30;;;;;;;;;;5027407;28;20064;-82
2022/10/24 12:52:05;;;;;;;7.00;2.28;;;;;;;;;;5033826;28;20590;-83
2022/10/24 12:54:40;;;;;;;5.35;2.20;;;;;;;;;;5033995;28;20152;-82
2022/10/24 12:57:07;;;;;;;6.95;2.30;;;;;;;;;;5036068;28;20069;-82
2022/10/24 12:59:44;;;;;;;8.65;2.55;;;;;;;;;;5032902;28;20072;-82
2022/10/24 13:02:10;;;;;;;8.88;2.63;;;;;;;;;;5034224;28;20124;-83
2022/10/24 13:04:44;;;;;;;8.85;2.58;;;;;;;;;;5034072;28;20133;-81
2022/10/24 13:07:10;;;;;;;10.05;2.22;;;;;;;;;;5032229;28;20463;-82
2022/10/24 13:09:36;;;;;;;9.95;2.28;;;;;;;;;;5033524;28;20622;-82
2022/10/24 13:12:05;;;;;;;7.60;2.35;;;;;;;;;;5033720;28;20089;-82
2022/10/24 13:14:57;;;;;;;6.18;2.00;;;;;;;;;;5035201;28;20038;-82
2022/10/24 13:17:42;;;;;;;6.57;2.78;;;;;;;;;;5031487;28;20046;-82
2022/10/24 13:20:15;;;;;;;9.00;2.35;;;;;;;;;;5037784;28;20048;-83
2022/10/24 13:22:41;;;;;;;8.48;2.78;;;;;;;;;;5053865;28;20044;-82
2022/10/24 13:25:36;;;;;;;8.13;2.40;;;;;;;;;;5040872;28;20045;-87
2022/10/24 13:28:21;;;;;;;8.10;2.53;;;;;;;;;;5022657;28;20049;-86
2022/10/24 13:30:48;;;;;;;6.68;2.28;;;;;;;;;;5041484;28;20068;-86
2022/10/24 13:33:32;;;;;;;7.20;2.40;;;;;;;;;;5034100;28;20480;-85
2022/10/24 13:36:16;;;;;;;5.65;2.10;;;;;;;;;;5032748;28;20461;-86
2022/10/24 13:38:45;;;;;;;7.57;2.20;;;;;;;;;;5033287;28;20054;-86
2022/10/24 13:41:13;;;;;;;6.25;2.03;;;;;;;;;;5031980;28;20041;-86
2022/10/24 13:43:44;;;;;;;8.35;2.78;;;;;;;;;;5033914;28;20052;-85
2022/10/24 13:46:10;;;;;;;12.70;3.45;;;;;;;;;;5033678;28;20095;-86
2022/10/24 13:48:39;;;;;;;18.17;8.07;;;;;;;;;;5033451;28;20129;-84
2022/10/24 13:51:07;;;;;;;9.85;3.90;;;;;;;;;;5033861;28;20175;-84
2022/10/24 13:53:46;;;;;;;15.27;6.07;;;;;;;;;;5034441;28;20067;-87
2022/10/24 13:56:13;;;;;;;8.50;2.63;;;;;;;;;;5033797;28;20054;-81
2022/10/24 13:58:43;;;;;;;14.15;5.88;;;;;;;;;;5031248;28;20046;-81
2022/10/24 14:01:13;;;;;;;12.27;4.57;;;;;;;;;;5032793;28;20443;-81
2022/10/24 14:03:42;;;;;;;10.30;2.72;;;;;;;;;;5033453;28;20037;-81
2022/10/24 14:06:08;;;;;;;9.75;3.15;;;;;;;;;;5031648;28;20045;-82
2022/10/24 14:08:41;;;;;;;9.07;3.58;;;;;;;;;;5029120;28;20199;-82
2022/10/24 14:11:11;;;;;;;12.75;4.22;;;;;;;;;;5027028;28;20053;-82
2022/10/24 14:13:42;;;;;;;12.77;3.85;;;;;;;;;;5016913;28;20049;-82
2022/10/24 14:16:08;;;;;;;12.13;4.55;;;;;;;;;;5033066;28;20103;-82
2022/10/24 14:18:36;;;;;;;15.55;7.53;;;;;;;;;;5032507;28;20396;-81
2022/10/24 14:21:04;;;;;;;8.65;3.08;;;;;;;;;;5032429;28;20042;-81
2022/10/24 14:23:33;;;;;;;9.60;3.00;;;;;;;;;;5031713;28;20103;-81
2022/10/24 14:25:59;;;;;;;10.93;3.63;;;;;;;;;;5032444;28;20045;-81
2022/10/24 14:28:27;;;;;;;7.55;2.70;;;;;;;;;;5032395;28;20038;-81
2022/10/24 14:30:54;;;;;;;7.22;2.22;;;;;;;;;;5032800;28;20042;-82
2022/10/24 14:33:25;;;;;;;9.10;3.40;;;;;;;;;;5034851;28;20041;-80
2022/10/24 14:35:52;;;;;;;7.13;2.40;;;;;;;;;;5033862;28;20052;-83
2022/10/24 14:38:18;;;;;;;6.57;3.08;;;;;;;;;;5035942;28;20052;-81
2022/10/24 14:40:46;;;;;;;9.70;3.83;;;;;;;;;;5037517;28;20045;-80
2022/10/24 14:43:16;;;;;;;8.93;3.50;;;;;;;;;;5036774;28;20097;-80
2022/10/24 14:45:43;;;;;;;8.95;2.35;;;;;;;;;;5036718;28;20140;-80
2022/10/24 14:48:26;;;;;;;9.40;2.42;;;;;;;;;;5036506;28;20049;-80
2022/10/24 14:50:52;;;;;;;10.23;2.80;;;;;;;;;;5019719;28;20080;-83
2022/10/24 14:53:26;;;;;;;11.63;5.30;;;;;;;;;;5036891;28;20037;-80